createdAt,value
2023-04-16T00:00:20.946Z,97980.75
2023-04-16T00:02:53.235Z,97971.28
2023-04-16T00:05:26.189Z,97964.22
2023-04-16T00:07:57.496Z,97959.63
2023-04-16T00:10:29.999Z,97952.28
2023-04-16T00:13:03.443Z,97964.25
2023-04-16T00:15:34.744Z,97967.50
2023-04-16T00:18:06.601Z,97971.19
2023-04-16T00:20:38.778Z,97981.78
2023-04-16T00:23:11.360Z,97976.31
2023-04-16T00:25:43.333Z,97971.41
2023-04-16T00:28:14.528Z,97968.00
2023-04-16T00:30:46.260Z,97974.03
2023-04-16T00:33:19.838Z,97984.41
2023-04-16T00:35:51.896Z,97988.19
2023-04-16T00:38:25.264Z,97983.69
2023-04-16T00:40:56.546Z,97990.41
2023-04-16T00:43:30.081Z,97995.53
2023-04-16T00:46:02.767Z,98005.84
2023-04-16T00:48:34.924Z,98015.50
2023-04-16T00:51:11.651Z,98018.16
2023-04-16T00:53:44.412Z,98017.19
2023-04-16T00:56:17.872Z,98013.63
2023-04-16T00:58:50.302Z,98020.31
2023-04-16T01:01:21.673Z,98023.78
2023-04-16T01:03:54.559Z,98039.69
2023-04-16T01:06:27.143Z,98035.06
2023-04-16T01:08:59.898Z,98037.78
2023-04-16T01:11:32.647Z,98027.19
2023-04-16T01:14:03.747Z,98031.59
2023-04-16T01:16:35.455Z,98045.88
2023-04-16T01:19:07.847Z,98048.06
2023-04-16T01:21:39.953Z,98046.84
2023-04-16T01:24:11.854Z,98054.38
2023-04-16T01:26:44.565Z,98063.00
2023-04-16T01:29:14.998Z,98060.06
2023-04-16T01:31:48.362Z,98058.47
2023-04-16T01:34:31.796Z,98070.06
2023-04-16T01:37:03.671Z,98068.91
2023-04-16T01:39:34.793Z,98082.47
2023-04-16T01:42:07.533Z,98081.81
2023-04-16T01:44:38.719Z,98070.38
2023-04-16T01:47:10.445Z,98079.91
2023-04-16T01:49:42.437Z,98091.78
2023-04-16T01:52:15.144Z,98080.22
2023-04-16T01:54:46.805Z,98086.47
2023-04-16T01:57:19.569Z,98095.56
2023-04-16T01:59:51.497Z,98097.00
2023-04-16T02:02:28.185Z,98095.59
2023-04-16T02:05:00.817Z,98079.59
2023-04-16T02:07:34.409Z,98101.31
2023-04-16T02:10:07.016Z,98102.13
2023-04-16T02:12:38.978Z,98107.69
2023-04-16T02:15:11.719Z,98102.19
2023-04-16T02:17:44.076Z,98102.03
2023-04-16T02:20:18.487Z,98109.59
2023-04-16T02:22:58.552Z,98110.44
2023-04-16T02:25:31.593Z,98110.22
2023-04-16T02:28:03.677Z,98116.25
2023-04-16T02:30:41.711Z,98115.94
2023-04-16T02:33:15.480Z,98116.38
2023-04-16T02:35:59.712Z,98120.34
2023-04-16T02:38:30.852Z,98118.56
2023-04-16T02:41:03.383Z,98118.97
2023-04-16T02:43:36.780Z,98112.63
2023-04-16T02:46:08.853Z,98123.16
2023-04-16T02:48:39.030Z,98121.47
2023-04-16T02:51:07.996Z,98122.69
2023-04-16T02:53:37.754Z,98123.53
2023-04-16T02:56:07.488Z,98122.59
2023-04-16T02:58:37.258Z,98121.91
2023-04-16T03:01:06.916Z,98128.91
2023-04-16T03:03:35.950Z,98122.72
2023-04-16T03:06:05.145Z,98130.22
2023-04-16T03:08:34.672Z,98125.41
2023-04-16T03:11:03.833Z,98132.59
2023-04-16T03:13:33.330Z,98139.06
2023-04-16T03:16:02.735Z,98142.91
2023-04-16T03:18:31.723Z,98149.38
2023-04-16T03:21:00.969Z,98147.66
2023-04-16T03:23:30.080Z,98148.94
2023-04-16T03:25:59.531Z,98150.97
2023-04-16T03:28:29.156Z,98153.88
2023-04-16T03:30:58.408Z,98154.28
2023-04-16T03:33:28.202Z,98158.81
2023-04-16T03:35:58.702Z,98158.03
2023-04-16T03:38:31.764Z,98155.53
2023-04-16T03:41:01.369Z,98152.69
2023-04-16T03:43:32.574Z,98159.91
2023-04-16T03:46:01.922Z,98157.56
2023-04-16T03:48:31.023Z,98148.25
2023-04-16T03:51:00.857Z,98158.56
2023-04-16T03:53:30.907Z,98160.84
2023-04-16T03:56:00.495Z,98178.50
2023-04-16T03:58:29.871Z,98193.00
2023-04-16T04:00:59.459Z,98197.25
2023-04-16T04:03:29.145Z,98183.91
2023-04-16T04:05:58.818Z,98166.34
2023-04-16T04:08:30.920Z,98170.41
2023-04-16T04:11:00.262Z,98180.34
2023-04-16T04:13:30.033Z,98192.91
2023-04-16T04:16:00.347Z,98211.31
2023-04-16T04:18:30.390Z,98193.00
2023-04-16T04:21:01.540Z,98178.81
2023-04-16T04:23:32.202Z,98182.75
2023-04-16T04:26:04.831Z,98206.50
2023-04-16T04:28:34.819Z,98213.72
2023-04-16T04:31:04.264Z,98201.88
2023-04-16T04:33:33.485Z,98197.97
2023-04-16T04:36:02.825Z,98204.25
2023-04-16T04:38:33.456Z,98210.78
2023-04-16T04:41:02.465Z,98202.88
2023-04-16T04:43:35.573Z,98200.78
2023-04-16T04:46:04.885Z,98195.56
2023-04-16T04:48:34.689Z,98199.56
2023-04-16T04:51:05.511Z,98196.78
2023-04-16T04:53:35.120Z,98193.09
2023-04-16T04:56:12.248Z,98198.66
2023-04-16T04:58:43.411Z,98187.19
2023-04-16T05:01:12.670Z,98190.53
2023-04-16T05:03:42.108Z,98194.34
2023-04-16T05:06:11.833Z,98193.47
2023-04-16T05:08:40.781Z,98201.63
2023-04-16T05:11:09.994Z,98196.84
2023-04-16T05:13:39.116Z,98200.91
2023-04-16T05:16:08.657Z,98189.75
2023-04-16T05:18:38.389Z,98198.09
2023-04-16T05:21:07.395Z,98185.94
2023-04-16T05:23:36.416Z,98178.72
2023-04-16T05:26:06.163Z,98175.75
2023-04-16T05:28:35.495Z,98170.75
2023-04-16T05:31:04.709Z,98170.22
2023-04-16T05:33:34.711Z,98174.91
2023-04-16T05:36:03.638Z,98176.91
2023-04-16T05:38:33.042Z,98170.09
2023-04-16T05:41:02.180Z,98164.81
2023-04-16T05:43:31.581Z,98158.00
2023-04-16T05:46:00.825Z,98161.56
2023-04-16T05:48:29.898Z,98163.81
2023-04-16T05:50:59.666Z,98156.41
2023-04-16T05:53:28.871Z,98157.66
2023-04-16T05:55:57.977Z,98156.78
2023-04-16T05:58:27.306Z,98146.47
2023-04-16T06:00:56.919Z,98145.59
2023-04-16T06:03:26.109Z,98142.56
2023-04-16T06:05:55.648Z,98141.91
2023-04-16T06:08:25.426Z,98136.09
2023-04-16T06:10:54.879Z,98126.63
2023-04-16T06:13:24.045Z,98126.47
2023-04-16T06:15:54.031Z,98131.47
2023-04-16T06:22:45.992Z,98134.94
2023-04-16T06:25:16.819Z,98128.47
2023-04-16T06:27:47.732Z,98109.22
2023-04-16T06:30:17.776Z,98111.47
2023-04-16T06:32:47.659Z,98113.50
2023-04-16T06:35:17.030Z,98122.31
2023-04-16T06:37:46.817Z,98113.81
2023-04-16T06:40:17.656Z,98115.50
2023-04-16T06:42:46.942Z,98112.75
2023-04-16T06:45:16.685Z,98105.13
2023-04-16T06:47:45.755Z,98114.69
2023-04-16T06:50:14.968Z,98110.31
2023-04-16T06:52:44.224Z,98107.28
2023-04-16T06:55:14.470Z,98106.81
2023-04-16T06:57:43.798Z,98101.22
2023-04-16T07:00:13.514Z,98098.91
2023-04-16T07:02:42.985Z,98099.06
2023-04-16T07:05:12.432Z,98091.59
2023-04-16T07:07:41.548Z,98087.84
2023-04-16T07:10:11.366Z,98081.31
2023-04-16T07:12:40.680Z,98078.97
2023-04-16T07:19:34.100Z,98078.81
2023-04-16T07:22:03.874Z,98078.88
2023-04-16T07:24:33.589Z,98070.56
2023-04-16T07:27:03.119Z,98069.41
2023-04-16T07:29:32.091Z,98068.38
2023-04-16T07:32:02.069Z,98063.50
2023-04-16T07:34:31.760Z,98058.06
2023-04-16T07:37:00.670Z,98051.50
2023-04-16T07:39:32.679Z,98064.22
2023-04-16T07:42:02.012Z,98052.38
2023-04-16T07:44:31.748Z,98045.09
2023-04-16T07:47:01.619Z,98048.97
2023-04-16T07:49:32.202Z,98044.81
2023-04-16T07:52:01.430Z,98036.47
2023-04-16T07:58:52.786Z,98032.34
2023-04-16T08:01:23.212Z,98029.63
2023-04-16T08:03:53.130Z,98032.41
2023-04-16T08:06:22.144Z,98029.53
2023-04-16T08:08:51.137Z,98032.88
2023-04-16T08:11:20.272Z,98032.09
2023-04-16T08:13:49.333Z,98041.53
2023-04-16T08:16:18.452Z,98031.22
2023-04-16T08:18:47.833Z,98024.28
2023-04-16T08:21:17.096Z,98022.06
2023-04-16T08:23:46.463Z,98012.13
2023-04-16T08:26:15.883Z,98002.94
2023-04-16T08:28:44.912Z,98003.16
2023-04-16T08:31:14.183Z,97993.81
2023-04-16T08:33:43.349Z,97989.38
2023-04-16T08:36:12.614Z,97979.22
2023-04-16T08:38:41.665Z,97973.03
2023-04-16T08:41:14.096Z,97974.03
2023-04-16T08:43:46.710Z,97969.44
2023-04-16T08:46:18.752Z,97967.75
2023-04-16T08:48:54.474Z,97970.34
2023-04-16T08:51:25.332Z,97961.97
2023-04-16T08:54:01.112Z,97953.41
2023-04-16T08:56:32.028Z,97948.16
2023-04-16T08:59:06.117Z,97936.38
2023-04-16T09:01:36.586Z,97937.66
2023-04-16T09:04:08.670Z,97936.22
2023-04-16T09:06:38.951Z,97922.50
2023-04-16T09:09:09.359Z,97921.59
2023-04-16T09:11:40.655Z,97919.91
2023-04-16T09:14:12.901Z,97918.91
2023-04-16T09:16:43.081Z,97909.13
2023-04-16T09:19:12.662Z,97906.06
2023-04-16T09:21:43.238Z,97901.72
2023-04-16T09:24:12.951Z,97906.16
2023-04-16T09:26:46.550Z,97908.13
2023-04-16T09:29:38.520Z,97912.28
2023-04-16T09:32:12.806Z,97901.47
2023-04-16T09:35:00.138Z,97896.41
2023-04-16T09:37:31.262Z,97894.94
2023-04-16T09:40:03.069Z,97891.16
2023-04-16T09:42:37.941Z,97891.97
2023-04-16T09:45:07.767Z,97884.13
2023-04-16T09:47:44.820Z,97878.22
2023-04-16T09:50:21.829Z,97880.69
2023-04-16T09:52:52.323Z,97871.53
2023-04-16T09:55:29.028Z,97873.94
2023-04-16T09:58:02.576Z,97876.44
2023-04-16T10:00:35.052Z,97877.19
2023-04-16T10:03:11.810Z,97866.59
2023-04-16T10:05:41.099Z,97867.78
2023-04-16T10:08:16.002Z,97856.81
2023-04-16T10:10:45.817Z,97854.31
2023-04-16T10:13:18.455Z,97853.44
2023-04-16T10:15:48.130Z,97849.88
2023-04-16T10:22:39.593Z,97843.06
2023-04-16T10:25:09.991Z,97838.69
2023-04-16T10:27:39.964Z,97832.00
2023-04-16T10:30:10.691Z,97837.31
2023-04-16T10:32:40.610Z,97837.84
2023-04-16T10:35:10.113Z,97830.75
2023-04-16T10:37:42.424Z,97819.53
2023-04-16T10:40:27.583Z,97821.94
2023-04-16T10:43:00.843Z,97815.09
2023-04-16T10:45:56.485Z,97817.88
2023-04-16T10:48:30.924Z,97814.16
2023-04-16T10:51:07.813Z,97811.84
2023-04-16T10:53:39.028Z,97814.44
2023-04-16T10:56:07.999Z,97805.78
2023-04-16T10:58:38.329Z,97804.66
2023-04-16T11:01:14.979Z,97802.19
2023-04-16T11:03:50.864Z,97807.34
2023-04-16T11:06:27.130Z,97798.66
2023-04-16T11:08:56.754Z,97798.94
2023-04-16T11:11:25.768Z,97793.31
2023-04-16T11:13:58.117Z,97793.22
2023-04-16T11:16:27.624Z,97789.38
2023-04-16T11:18:57.981Z,97791.97
2023-04-16T11:21:28.233Z,97792.13
2023-04-16T11:23:59.900Z,97790.81
2023-04-16T11:26:32.181Z,97791.59
2023-04-16T11:33:28.394Z,97781.59
2023-04-16T11:36:01.850Z,97780.63
2023-04-16T11:38:44.196Z,97780.59
2023-04-16T11:41:20.524Z,97776.78
2023-04-16T11:43:49.655Z,97776.06
2023-04-16T11:46:27.277Z,97779.97
2023-04-16T11:48:57.289Z,97779.03
2023-04-16T11:51:26.605Z,97774.59
2023-04-16T11:53:57.138Z,97773.97
2023-04-16T11:56:31.904Z,97777.06
2023-04-16T11:59:17.548Z,97783.78
2023-04-16T12:01:52.872Z,97776.19
2023-04-16T12:04:26.831Z,97776.50
2023-04-16T12:07:08.772Z,97777.28
2023-04-16T12:09:40.798Z,97788.66
2023-04-16T12:12:32.543Z,97783.75
2023-04-16T12:15:06.740Z,97782.94
2023-04-16T12:17:37.757Z,97784.09
2023-04-16T12:20:12.869Z,97794.41
2023-04-16T12:22:46.103Z,97794.53
2023-04-16T12:25:26.170Z,97792.25
2023-04-16T12:27:57.565Z,97792.22
2023-04-16T12:30:27.860Z,97798.22
2023-04-16T12:37:18.818Z,97813.47
2023-04-16T12:39:48.177Z,97811.59
2023-04-16T12:42:17.459Z,97813.66
2023-04-16T12:44:46.702Z,97817.00
2023-04-16T12:47:16.103Z,97827.75
2023-04-16T12:49:45.805Z,97830.00
2023-04-16T12:52:14.868Z,97837.97
2023-04-16T12:54:44.196Z,97838.50
2023-04-16T12:57:13.549Z,97841.63
2023-04-16T12:59:42.832Z,97845.81
2023-04-16T13:02:12.222Z,97839.66
2023-04-16T13:04:41.442Z,97849.28
2023-04-16T13:07:10.803Z,97854.75
2023-04-16T13:09:40.604Z,97859.63
2023-04-16T13:12:09.823Z,97864.88
2023-04-16T13:14:40.112Z,97856.56
2023-04-16T13:17:09.358Z,97870.16
2023-04-16T13:19:38.457Z,97873.81
2023-04-16T13:22:07.868Z,97868.16
2023-04-16T13:24:36.927Z,97875.78
2023-04-16T13:27:06.904Z,97878.59
2023-04-16T13:29:39.452Z,97878.13
2023-04-16T13:32:08.804Z,97884.63
2023-04-16T13:34:38.148Z,97888.88
2023-04-16T13:37:08.048Z,97880.69
2023-04-16T13:39:37.121Z,97882.81
2023-04-16T13:42:06.619Z,97892.09
2023-04-16T13:44:35.812Z,97893.16
2023-04-16T13:47:05.289Z,97891.63
2023-04-16T13:49:36.341Z,97896.56
2023-04-16T13:52:05.911Z,97899.38
2023-04-16T13:54:34.796Z,97909.16
2023-04-16T13:57:04.131Z,97911.31
2023-04-16T13:59:33.665Z,97906.16
2023-04-16T14:02:03.369Z,97910.72
2023-04-16T14:04:32.673Z,97918.78
2023-04-16T14:07:02.272Z,97921.97
2023-04-16T14:09:31.689Z,97927.50
2023-04-16T14:12:00.975Z,97924.22
2023-04-16T14:14:30.246Z,97924.63
2023-04-16T14:17:04.261Z,97919.69
2023-04-16T14:19:33.618Z,97934.84
2023-04-16T14:22:02.667Z,97930.31
2023-04-16T14:24:31.834Z,97938.41
2023-04-16T14:27:01.030Z,97928.81
2023-04-16T14:29:30.322Z,97939.53
2023-04-16T14:31:59.337Z,97933.03
2023-04-16T14:34:28.800Z,97935.44
2023-04-16T14:36:57.974Z,97940.34
2023-04-16T14:39:27.422Z,97942.25
2023-04-16T14:41:56.732Z,97942.44
2023-04-16T14:44:25.686Z,97943.66
2023-04-16T14:46:55.005Z,97945.28
2023-04-16T14:49:24.149Z,97936.66
2023-04-16T14:51:53.604Z,97948.41
2023-04-16T14:54:23.242Z,97944.78
2023-04-16T14:56:52.375Z,97944.13
2023-04-16T14:59:21.504Z,97944.53
2023-04-16T15:01:50.530Z,97938.69
2023-04-16T15:04:20.109Z,97943.72
2023-04-16T15:06:50.317Z,97945.97
2023-04-16T15:09:19.410Z,97957.16
2023-04-16T15:11:48.537Z,97958.81
2023-04-16T15:14:17.877Z,97956.28
2023-04-16T15:16:48.027Z,97962.47
2023-04-16T15:19:17.591Z,97960.50
2023-04-16T15:21:48.739Z,97962.19
2023-04-16T15:24:18.254Z,97967.34
2023-04-16T15:26:47.325Z,97959.28
2023-04-16T15:29:16.751Z,97969.59
2023-04-16T15:31:46.109Z,97961.94
2023-04-16T15:34:15.065Z,97962.03
2023-04-16T15:36:44.207Z,97962.03
2023-04-16T15:39:13.559Z,97971.28
2023-04-16T15:41:57.523Z,97963.31
2023-04-16T15:44:31.283Z,97973.50
2023-04-16T15:47:01.427Z,97970.28
2023-04-16T15:49:30.840Z,97974.19
2023-04-16T15:51:59.861Z,97968.63
2023-04-16T15:54:28.921Z,97976.13
2023-04-16T15:56:59.856Z,97981.31
2023-04-16T15:59:29.067Z,97979.94
2023-04-16T16:01:58.300Z,97987.72
2023-04-16T16:04:29.405Z,97977.13
2023-04-16T16:06:58.856Z,97990.53
2023-04-16T16:09:28.868Z,97985.31
2023-04-16T16:12:00.826Z,97985.59
2023-04-16T16:14:30.069Z,97991.47
2023-04-16T16:16:59.203Z,97996.19
2023-04-16T16:19:28.456Z,97992.16
2023-04-16T16:21:57.653Z,98003.19
2023-04-16T16:24:27.760Z,98007.63
2023-04-16T16:26:57.798Z,98017.09
2023-04-16T16:29:26.949Z,98048.28
2023-04-16T16:31:56.293Z,98041.56
2023-04-16T16:34:25.424Z,98045.66
2023-04-16T16:36:54.642Z,98032.50
2023-04-16T16:39:25.461Z,98048.38
2023-04-16T16:41:54.879Z,98064.00
2023-04-16T16:44:24.272Z,98067.31
2023-04-16T16:46:53.208Z,98071.94
2023-04-16T16:49:22.494Z,98064.25
2023-04-16T16:51:51.934Z,98071.66
2023-04-16T16:54:21.043Z,98080.66
2023-04-16T16:56:52.652Z,98076.22
2023-04-16T16:59:21.815Z,98083.44
2023-04-16T17:01:51.106Z,98081.72
2023-04-16T17:04:20.516Z,98083.41
2023-04-16T17:06:49.884Z,98093.00
2023-04-16T17:09:19.232Z,98088.44
2023-04-16T17:11:48.396Z,98096.22
2023-04-16T17:14:17.586Z,98093.03
2023-04-16T17:16:50.933Z,98083.44
2023-04-16T17:19:20.271Z,98083.56
2023-04-16T17:21:49.410Z,98086.66
2023-04-16T17:24:19.230Z,98077.63
2023-04-16T17:26:49.117Z,98071.38
2023-04-16T17:29:18.268Z,98069.50
2023-04-16T17:31:47.475Z,98073.34
2023-04-16T17:34:16.857Z,98078.94
2023-04-16T17:36:47.876Z,98070.28
2023-04-16T17:39:17.351Z,98071.94
2023-04-16T17:41:46.698Z,98078.41
2023-04-16T17:44:16.240Z,98067.91
2023-04-16T17:46:45.814Z,98061.28
2023-04-16T17:49:14.866Z,98063.50
2023-04-16T17:51:45.551Z,98051.00
2023-04-16T17:54:14.990Z,98050.78
2023-04-16T17:56:43.867Z,98046.34
2023-04-16T17:59:13.220Z,98040.97
2023-04-16T18:01:42.775Z,98038.97
2023-04-16T18:04:12.357Z,98040.34
2023-04-16T18:06:42.286Z,98035.81
2023-04-16T18:09:11.216Z,98026.44
2023-04-16T18:11:40.441Z,98022.09
2023-04-16T18:14:10.985Z,98025.13
2023-04-16T18:16:40.615Z,98020.63
2023-04-16T18:19:09.635Z,98015.56
2023-04-16T18:21:38.821Z,98022.25
2023-04-16T18:24:08.605Z,98024.75
2023-04-16T18:26:37.788Z,98015.91
2023-04-16T18:29:07.170Z,98012.44
2023-04-16T18:31:36.631Z,98014.13
2023-04-16T18:34:06.445Z,98002.59
2023-04-16T18:36:35.987Z,97999.22
2023-04-16T18:39:05.109Z,97997.19
2023-04-16T18:41:34.223Z,98000.91
2023-04-16T18:44:03.557Z,97991.25
2023-04-16T18:46:32.889Z,97989.91
2023-04-16T18:49:02.374Z,97991.84
2023-04-16T18:51:31.845Z,97981.78
2023-04-16T18:54:01.527Z,97984.44
2023-04-16T18:56:33.350Z,97981.19
2023-04-16T18:59:03.411Z,97974.16
2023-04-16T19:01:32.493Z,97976.03
2023-04-16T19:04:02.699Z,97980.34
2023-04-16T19:06:32.895Z,97980.13
2023-04-16T19:09:02.411Z,97974.66
2023-04-16T19:11:31.634Z,97977.66
2023-04-16T19:14:03.184Z,97975.97
2023-04-16T19:16:32.959Z,97982.69
2023-04-16T19:19:02.382Z,97979.59
2023-04-16T19:21:31.913Z,97971.44
2023-04-16T19:24:01.210Z,97969.97
2023-04-16T19:26:30.252Z,97973.56
2023-04-16T19:28:59.469Z,97968.53
2023-04-16T19:31:28.980Z,97971.28
2023-04-16T19:33:58.073Z,97968.28
2023-04-16T19:36:27.452Z,97964.44
2023-04-16T19:38:56.789Z,97956.00
2023-04-16T19:41:25.886Z,97949.38
2023-04-16T19:43:56.813Z,97945.63
2023-04-16T19:46:26.055Z,97948.38
2023-04-16T19:48:54.965Z,97940.59
2023-04-16T19:51:24.761Z,97944.97
2023-04-16T19:53:54.690Z,97945.72
2023-04-16T19:56:23.839Z,97943.94
2023-04-16T19:58:53.211Z,97932.28
2023-04-16T20:01:23.415Z,97934.44
2023-04-16T20:03:53.177Z,97936.50
2023-04-16T20:06:23.501Z,97939.38
2023-04-16T20:08:53.952Z,97933.38
2023-04-16T20:11:23.756Z,97940.09
2023-04-16T20:13:54.221Z,97936.47
2023-04-16T20:16:24.878Z,97942.00
2023-04-16T20:18:58.470Z,97947.28
2023-04-16T20:21:29.654Z,97942.47
2023-04-16T20:24:03.256Z,97950.38
2023-04-16T20:26:35.184Z,97946.03
2023-04-16T20:29:05.155Z,97946.19
2023-04-16T20:31:37.785Z,97948.69
2023-04-16T20:34:09.917Z,97948.81
2023-04-16T20:36:41.438Z,97944.16
2023-04-16T20:39:13.554Z,97940.56
2023-04-16T20:41:46.770Z,97937.22
2023-04-16T20:44:21.048Z,97935.81
2023-04-16T20:46:56.469Z,97938.78
2023-04-16T20:49:29.710Z,97944.91
2023-04-16T20:52:01.770Z,97933.72
2023-04-16T20:54:33.658Z,97945.84
2023-04-16T20:57:05.378Z,97940.56
2023-04-16T20:59:40.002Z,97929.28
2023-04-16T21:02:11.797Z,97934.31
2023-04-16T21:04:45.010Z,97940.56
2023-04-16T21:07:17.421Z,97934.25
2023-04-16T21:09:49.945Z,97945.13
2023-04-16T21:12:22.800Z,97950.66
2023-04-16T21:14:54.937Z,97960.25
2023-04-16T21:17:27.550Z,97954.72
2023-04-16T21:20:00.703Z,97954.97
2023-04-16T21:22:32.820Z,97945.38
2023-04-16T21:25:04.849Z,97948.72
2023-04-16T21:27:36.573Z,97963.09
2023-04-16T21:30:09.344Z,97961.25
2023-04-16T21:32:42.151Z,97941.97
2023-04-16T21:35:15.322Z,97940.78
2023-04-16T21:37:46.591Z,97929.63
2023-04-16T21:40:19.490Z,97925.88
2023-04-16T21:42:51.392Z,97933.66
2023-04-16T21:45:23.263Z,97929.00
2023-04-16T21:47:57.121Z,97927.72
2023-04-16T21:50:28.778Z,97937.75
2023-04-16T21:53:00.776Z,97941.34
2023-04-16T21:55:33.283Z,97926.84
2023-04-16T21:58:06.140Z,97934.44
2023-04-16T22:00:37.488Z,97931.81
2023-04-16T22:03:11.597Z,97941.16
2023-04-16T22:05:45.114Z,97935.16
2023-04-16T22:08:24.705Z,97933.13
2023-04-16T22:11:02.087Z,97938.47
2023-04-16T22:13:38.910Z,97938.50
2023-04-16T22:16:11.769Z,97932.84
2023-04-16T22:18:45.095Z,97928.59
2023-04-16T22:21:17.076Z,97933.47
2023-04-16T22:23:49.188Z,97931.59
2023-04-16T22:26:21.717Z,97932.94
2023-04-16T22:28:53.786Z,97927.78
2023-04-16T22:31:26.474Z,97928.22
2023-04-16T22:34:00.940Z,97930.22
2023-04-16T22:36:35.275Z,97922.22
2023-04-16T22:39:11.635Z,97927.44
2023-04-16T22:41:43.413Z,97935.06
2023-04-16T22:44:15.288Z,97926.22
2023-04-16T22:46:48.814Z,97925.88
2023-04-16T22:49:20.055Z,97933.53
2023-04-16T22:51:52.581Z,97927.34
2023-04-16T22:54:25.405Z,97936.06
2023-04-16T22:56:59.031Z,97933.44
2023-04-16T22:59:31.848Z,97933.56
2023-04-16T23:02:03.818Z,97934.19
2023-04-16T23:04:37.029Z,97935.22
2023-04-16T23:07:09.922Z,97942.56
2023-04-16T23:09:42.694Z,97940.28
2023-04-16T23:12:17.691Z,97932.00
2023-04-16T23:14:50.405Z,97933.16
2023-04-16T23:17:21.616Z,97943.03
2023-04-16T23:19:54.410Z,97956.28
2023-04-16T23:22:27.043Z,97962.25
2023-04-16T23:25:00.298Z,97966.25
2023-04-16T23:27:33.661Z,97962.56
2023-04-16T23:30:07.634Z,97953.22
2023-04-16T23:32:39.712Z,97955.00
2023-04-16T23:35:12.441Z,97968.03
2023-04-16T23:37:44.962Z,97955.94
2023-04-16T23:40:18.694Z,97959.19
2023-04-16T23:42:50.679Z,97957.31
2023-04-16T23:45:23.345Z,97958.16
2023-04-16T23:47:55.352Z,97963.59
2023-04-16T23:50:28.824Z,97968.88
2023-04-16T23:53:00.478Z,97970.13
2023-04-16T23:55:34.094Z,97972.00
2023-04-16T23:58:06.094Z,97966.34
